WHISKEYTOWN DAM (USBR) (WHI)

Elevation: 1210' · SACRAMENTO R basin · Operator: US Bureau of Reclamation

Provisional data, subject to change.
Query executed Friday at 8:14:50   clock

Select a sensor type for a plot of data.
Note: Reservoir Flows are daily averages.

Earlier

Date RES ELE    STORAGE    RES CHG    OUTFLOW    INFLOW    EVAP    RIV REL    PPT INC    RAIN    SPILL    DIS PWR   
 FEET   AF   AF   CFS   CFS   CFS   CFS   INCHES   INCHES   CFS   CFS  
06/26/2014 1208.42 236052 254 1459 1601 14 477 0.00 30.95 0 982
06/27/2014 1208.56 236497 445 1421 1656 11 353 0.00 30.95 0 1068
06/28/2014 1208.78 237196 699 1504 1878 22 264 0.00 30.95 0 1240
06/29/2014 1208.85 237418 222 1361 1505 32 190 0.00 30.95 0 1171
06/30/2014 1208.79 237228 -190 1550 1477 23 189 0.00 30.95 0 1361
07/01/2014 1209.02 237959 731 2690 3094 35 189 0.00 30.95 0 2501
07/02/2014 1208.95 237736 -223 3299 3209 22 190 0.00 30.95 0 3109
07/03/2014 1208.82 237323 -413 3364 3184 28 190 0.00 30.95 0 3174
07/04/2014 1208.91 237609 286 3096 3277 37 190 0.00 30.95 0 2906
07/05/2014 1208.84 237387 -222 3375 3294 31 190 0.00 30.95 0 3185
07/06/2014 1208.73 237037 -350 3286 3144 34 190 0.00 30.95 0 3096
07/07/2014 1208.56 236497 -540 3362 3119 29 190 0.00 30.95 0 3172
07/08/2014 1208.52 236370 -127 3151 3116 29 190 0.00 30.95 0 2961
07/09/2014 1208.48 236242 -128 3160 3124 29 190 0.00 30.95 0 2970
07/10/2014 1208.52 236370 128 2517 2607 25 188 0.00 30.95 0 2329
07/11/2014 1208.41 236020 -350 2699 2556 33 176 0.05 31.00 0 2523
07/12/2014 1208.42 236052 32 2479 2516 21 176 0.00 31.00 0 2303
07/13/2014 1208.49 236274 222 2484 2626 30 176 0.00 31.00 0 2308
07/14/2014 1208.55 236465 191 2442 2569 31 176 0.00 31.00 0 2266
07/15/2014 1208.69 236910 445 2461 2708 23 176 0.00 31.00 0 2285
07/16/2014 1208.64 236751 -159 2531 2473 22 176 0.00 31.00 0 2355
07/17/2014 1208.60 236624 -127 2558 2512 18 176 0.00 31.00 0 2382
07/18/2014 1208.56 236497 -127 2639 2591 16 179 0.00 31.00 0 2460
07/19/2014 1208.67 236846 349 2593 2798 29 173 0.00 31.00 0 2420
07/20/2014 1208.73 237037 191 2575 2710 39 173 0.00 31.00 0 2402
07/21/2014 1208.84 237387 350 2443 2646 27 173 0.00 31.00 0 2270
07/22/2014 1208.86 237450 63 2411 2462 19 173 0.05 31.05 0 2238
07/23/2014 1208.98 237831 381 2429 2637 16 173 0.00 31.05 0 2256
07/24/2014 1208.80 237259 -572 2783 2518 23 173 0.00 31.05 0 2610
07/25/2014 -- -- -- -- -- -- -- -- -- -- --

Later | Latest

Warning! This data is preliminary and subject to revision.

Download Data Now Download Data Now | Show WHI Map | Plot WHI Data | 1 Month WHI Data | Real-Time WHI Data | WHI Info